• Join FlightAware (Why Join?)
  • Login
  • US Flag 
02:28PM EDT


 

Airport Tracker/Info


-or-


 

Live Flight TrackerFlight Track Log ✈ CSN3233 ✈ 17-Jul-2013 ✈ ZGKL / KWL - ZGGG / CAN

Flight Track Log - Related Links

Times and Time Zones

All times are in EDT time to prevent confusion due to time zone crossing. See the CSN3233 flight status page for this flight to view local times or setup timezone preferences in your user account.

Time Position Orientation Groundspeed Altitude Reporting Facility
EDT Latitude Longitude Course Direction KTS MPH feet Rate Location/Type
08:27AM 24.4790 110.9810 135° Southeast 401 461 24,600  Level FlightAware
08:28AM 24.4180 111.0370 140° Southeast 404 465 24,600  Level FlightAware
08:28AM 24.3670 111.0790 143° Southeast 405 466 24,600  Level FlightAware
08:29AM 24.3100 111.1250 144° Southeast 396 456 24,600  Level FlightAware
08:30AM 24.1840 111.2260 144° Southeast 383 441 24,600  Level FlightAware
08:31AM 24.1400 111.2610 144° Southeast 383 441 24,600  Level FlightAware
08:32AM 24.0530 111.3620 133° Southeast 376 433 24,600  Level FlightAware
08:33AM 24.0090 111.4090 136° Southeast 376 433 24,600  Level FlightAware
08:33AM 23.9520 111.4720 135° Southeast 374 430 24,600  Level FlightAware
08:34AM 23.8890 111.5390 136° Southeast 373 429 24,600  Level FlightAware
08:35AM 23.8470 111.5840 136° Southeast 373 429 24,600 -120 Level FlightAware
08:35AM 23.8090 111.6250 135° Southeast 372 428 24,500 -1,020 Descending FlightAware
08:36AM 23.7410 111.6970 136° Southeast 381 438 23,200 -1,620 Descending FlightAware
08:37AM 23.6810 111.7610 136° Southeast 387 445 21,900 -1,680 Descending FlightAware
08:38AM 23.6280 111.8180 135° Southeast 386 444 20,800 -1,980 Descending FlightAware
08:38AM 23.5690 111.8800 136° Southeast 383 441 19,100 -2,100 Descending FlightAware
08:39AM 23.5260 111.9270 135° Southeast 376 433 18,000 -1,980 Descending FlightAware
08:40AM 23.4730 111.9890 133° Southeast 365 420 16,500 -1,980 Descending FlightAware
08:40AM 23.4240 112.0500 131° Southeast 355 409 15,100 -1,860 Descending FlightAware
08:41AM 23.3650 112.1240 131° Southeast 345 397 13,400 -1,500 Descending FlightAware
08:42AM 23.3250 112.1720 132° Southeast 337 388 12,800 -480 Descending FlightAware
08:43AM 23.2770 112.2320 131° Southeast 334 384 12,800  Level FlightAware
08:44AM 23.2210 112.3010 131° Southeast 330 380 12,800  Level FlightAware
08:44AM 23.1810 112.3490 132° Southeast 326 375 12,800 -120 Level FlightAware
08:45AM 23.1360 112.4050 131° Southeast 307 353 12,700 -540 Descending FlightAware
08:46AM 23.0920 112.4590 132° Southeast 305 351 12,000 -960 Descending FlightAware
08:47AM 23.0700 112.5110 115° Southeast 304 350 11,400 -960 Descending FlightAware
08:47AM 23.0700 112.5640 90° East 304 350 10,900 -420 Descending FlightAware
08:48AM 23.0690 112.6570 91° East 295 339 10,800 -240 Descending FlightAware
08:49AM 23.0690 112.7070 90° East 268 308 10,600 -540 Descending FlightAware
08:49AM 23.0690 112.7510 90° East 251 289 10,200 -900 Descending FlightAware
08:50AM 23.0690 112.7940 90° East 245 282 9,600 -1,080 Descending FlightAware
08:50AM 23.0680 112.8220 92° East 242 278 9,200 -1,140 Descending FlightAware
08:51AM 23.0680 112.8730 90° East 239 275 8,400 -1,140 Descending FlightAware
08:51AM 23.0680 112.8860 90° East 239 275 8,200 -1,200 Descending FlightAware
08:52AM 23.0770 112.9360 79° East 240 276 7,300 -1,200 Descending FlightAware
08:52AM 23.0890 112.9690 68° East 236 272 6,800 -1,080 Descending FlightAware
08:53AM 23.1000 113.0090 73° East 232 267 6,200 -660 Descending FlightAware
08:53AM 23.1090 113.0390 72° East 225 259 6,100 -540 Descending FlightAware
08:54AM 23.1170 113.0710 75° East 223 257 5,700 -1,080 Descending FlightAware
08:54AM 23.1250 113.1000 73° East 227 261 5,100 -1,080 Descending FlightAware
08:55AM 23.1330 113.1260 71° East 215 247 4,800 -600 Descending FlightAware
08:55AM 23.1410 113.1550 73° East 191 220 4,600 -540 Descending FlightAware
08:55AM 23.1450 113.1690 73° East 183 211 4,400 -1,140 Descending FlightAware
08:56AM 23.1580 113.1920 58° Northeast 187 215 3,800 -1,080 Descending FlightAware
08:56AM 23.1740 113.2090 44° Northeast 181 208 3,400 -660 Descending FlightAware
08:57AM 23.1910 113.2270 44° Northeast 178 205 3,200 -300 Descending FlightAware
08:57AM 23.2000 113.2340 36° Northeast 182 209 3,200  Level FlightAware
08:58AM 23.2220 113.2400 14° North 181 208 3,200 -540 Level FlightAware
08:58AM 23.2390 113.2450 15° North 188 216 2,800 -1,020 Descending FlightAware
08:58AM 23.2620 113.2520 16° North 174 200 2,400 -840 Descending FlightAware
08:59AM 23.2740 113.2560 17° North 165 190 2,200 -840 Descending FlightAware
08:59AM 23.2950 113.2610 12° North 160 184 1,800 -840 Descending FlightAware
09:00AM 23.3170 113.2670 14° North 161 185 1,400 -840 Descending FlightAware
09:02AM 23.3924 113.2988 21° North  Level Estimated
09:03AM 23.3924 113.2988 223° Southwest  Level Estimated
09:04AM 23.3924 113.2988 223° Southwest  Level Estimated
09:05AM 23.3924 113.2988 223° Southwest  Level Estimated
09:06AM 23.3924 113.2988 223° Southwest  Level Estimated
09:07AM 23.3924 113.2988 223° Southwest  Level Estimated
09:08AM 23.3924 113.2988 223° Southwest  Level Estimated
09:09AM 23.3924 113.2988 223° Southwest  Level Estimated
09:10AM 23.3924 113.2988 223° Southwest  Level Estimated
09:11AM 23.3924 113.2988 223° Southwest  Level Estimated
09:12AM 23.3924 113.2988 223° Southwest  Level Estimated
09:13AM 23.3924 113.2988 223° Southwest  Level Estimated
09:14AM 23.3924 113.2988 223° Southwest  Level Estimated